sensor_id;sensor_type;location;lat;lon;timestamp;P1;durP1;ratioP1;P2;durP2;ratioP2
73120;SDS011;61307;49.628;-1.624;2023-07-22T00:02:05;2.28;;;1.40;;
73120;SDS011;61307;49.628;-1.624;2023-07-22T00:04:32;1.98;;;1.23;;
73120;SDS011;61307;49.628;-1.624;2023-07-22T00:06:59;2.25;;;1.45;;
73120;SDS011;61307;49.628;-1.624;2023-07-22T00:09:27;2.33;;;1.40;;
73120;SDS011;61307;49.628;-1.624;2023-07-22T00:11:54;1.70;;;1.30;;
73120;SDS011;61307;49.628;-1.624;2023-07-22T00:14:21;1.88;;;1.33;;
73120;SDS011;61307;49.628;-1.624;2023-07-22T00:16:50;3.28;;;1.52;;
73120;SDS011;61307;49.628;-1.624;2023-07-22T00:19:17;3.90;;;1.30;;
73120;SDS011;61307;49.628;-1.624;2023-07-22T00:21:44;2.45;;;1.33;;
73120;SDS011;61307;49.628;-1.624;2023-07-22T00:24:12;1.35;;;1.20;;
73120;SDS011;61307;49.628;-1.624;2023-07-22T00:26:40;1.38;;;1.23;;
73120;SDS011;61307;49.628;-1.624;2023-07-22T00:29:07;4.20;;;1.30;;
73120;SDS011;61307;49.628;-1.624;2023-07-22T00:31:35;2.85;;;1.30;;
73120;SDS011;61307;49.628;-1.624;2023-07-22T00:34:03;2.15;;;1.10;;
73120;SDS011;61307;49.628;-1.624;2023-07-22T00:36:31;1.42;;;1.20;;
73120;SDS011;61307;49.628;-1.624;2023-07-22T00:38:58;2.30;;;1.30;;
73120;SDS011;61307;49.628;-1.624;2023-07-22T00:41:25;1.40;;;1.20;;
73120;SDS011;61307;49.628;-1.624;2023-07-22T00:43:52;2.05;;;1.15;;
73120;SDS011;61307;49.628;-1.624;2023-07-22T00:46:20;1.98;;;1.13;;
73120;SDS011;61307;49.628;-1.624;2023-07-22T00:48:47;4.13;;;1.45;;
73120;SDS011;61307;49.628;-1.624;2023-07-22T00:51:17;2.15;;;1.30;;
73120;SDS011;61307;49.628;-1.624;2023-07-22T00:53:47;1.95;;;1.20;;
73120;SDS011;61307;49.628;-1.624;2023-07-22T00:56:14;1.42;;;1.17;;
73120;SDS011;61307;49.628;-1.624;2023-07-22T00:58:41;3.70;;;1.40;;
73120;SDS011;61307;49.628;-1.624;2023-07-22T01:01:08;3.05;;;1.30;;
73120;SDS011;61307;49.628;-1.624;2023-07-22T01:03:36;2.05;;;1.10;;
73120;SDS011;61307;49.628;-1.624;2023-07-22T01:06:03;2.13;;;1.20;;
73120;SDS011;61307;49.628;-1.624;2023-07-22T01:08:32;1.77;;;1.13;;
73120;SDS011;61307;49.628;-1.624;2023-07-22T01:10:59;1.52;;;1.20;;
73120;SDS011;61307;49.628;-1.624;2023-07-22T01:13:26;1.50;;;1.10;;
73120;SDS011;61307;49.628;-1.624;2023-07-22T01:15:53;1.20;;;1.10;;
73120;SDS011;61307;49.628;-1.624;2023-07-22T01:18:21;4.10;;;1.30;;
73120;SDS011;61307;49.628;-1.624;2023-07-22T01:20:48;1.95;;;1.20;;
73120;SDS011;61307;49.628;-1.624;2023-07-22T01:23:17;1.52;;;0.95;;
73120;SDS011;61307;49.628;-1.624;2023-07-22T01:25:45;1.60;;;1.10;;
73120;SDS011;61307;49.628;-1.624;2023-07-22T01:28:12;1.52;;;1.10;;
73120;SDS011;61307;49.628;-1.624;2023-07-22T01:30:39;1.48;;;1.00;;
73120;SDS011;61307;49.628;-1.624;2023-07-22T01:33:06;2.03;;;1.20;;
73120;SDS011;61307;49.628;-1.624;2023-07-22T01:35:37;1.10;;;1.00;;
73120;SDS011;61307;49.628;-1.624;2023-07-22T01:38:04;2.13;;;0.88;;
73120;SDS011;61307;49.628;-1.624;2023-07-22T01:40:34;2.65;;;1.10;;
73120;SDS011;61307;49.628;-1.624;2023-07-22T01:43:01;1.95;;;1.33;;
73120;SDS011;61307;49.628;-1.624;2023-07-22T01:45:29;1.73;;;1.10;;
73120;SDS011;61307;49.628;-1.624;2023-07-22T01:47:56;1.10;;;1.00;;
73120;SDS011;61307;49.628;-1.624;2023-07-22T01:50:23;1.52;;;1.27;;
73120;SDS011;61307;49.628;-1.624;2023-07-22T01:52:50;2.53;;;1.25;;
73120;SDS011;61307;49.628;-1.624;2023-07-22T01:55:17;2.10;;;1.13;;
73120;SDS011;61307;49.628;-1.624;2023-07-22T01:57:46;1.63;;;1.20;;
73120;SDS011;61307;49.628;-1.624;2023-07-22T02:00:14;2.40;;;1.00;;
73120;SDS011;61307;49.628;-1.624;2023-07-22T02:02:42;1.20;;;1.00;;
73120;SDS011;61307;49.628;-1.624;2023-07-22T02:05:09;1.63;;;0.95;;
73120;SDS011;61307;49.628;-1.624;2023-07-22T02:07:36;1.30;;;1.20;;
73120;SDS011;61307;49.628;-1.624;2023-07-22T02:10:04;1.25;;;0.85;;
73120;SDS011;61307;49.628;-1.624;2023-07-22T02:12:31;1.95;;;1.20;;
73120;SDS011;61307;49.628;-1.624;2023-07-22T02:15:00;1.70;;;1.00;;
73120;SDS011;61307;49.628;-1.624;2023-07-22T02:17:28;1.10;;;0.90;;
73120;SDS011;61307;49.628;-1.624;2023-07-22T02:19:56;1.58;;;1.05;;
73120;SDS011;61307;49.628;-1.624;2023-07-22T02:25:30;2.20;;;1.00;;
73120;SDS011;61307;49.628;-1.624;2023-07-22T02:27:58;2.90;;;1.00;;
73120;SDS011;61307;49.628;-1.624;2023-07-22T02:30:26;4.10;;;1.00;;
73120;SDS011;61307;49.628;-1.624;2023-07-22T02:32:54;2.33;;;1.20;;
73120;SDS011;61307;49.628;-1.624;2023-07-22T02:35:21;1.92;;;1.25;;
73120;SDS011;61307;49.628;-1.624;2023-07-22T02:37:48;1.42;;;0.80;;
73120;SDS011;61307;49.628;-1.624;2023-07-22T02:40:15;2.33;;;1.00;;
73120;SDS011;61307;49.628;-1.624;2023-07-22T02:42:42;1.73;;;1.05;;
73120;SDS011;61307;49.628;-1.624;2023-07-22T02:45:10;2.55;;;1.10;;
73120;SDS011;61307;49.628;-1.624;2023-07-22T02:47:39;1.25;;;1.00;;
73120;SDS011;61307;49.628;-1.624;2023-07-22T02:50:06;1.08;;;0.98;;
73120;SDS011;61307;49.628;-1.624;2023-07-22T02:52:34;3.35;;;1.10;;
73120;SDS011;61307;49.628;-1.624;2023-07-22T02:55:06;0.90;;;0.88;;
73120;SDS011;61307;49.628;-1.624;2023-07-22T02:57:36;1.55;;;1.00;;
73120;SDS011;61307;49.628;-1.624;2023-07-22T03:00:04;1.98;;;1.25;;
73120;SDS011;61307;49.628;-1.624;2023-07-22T03:02:33;2.47;;;1.13;;
73120;SDS011;61307;49.628;-1.624;2023-07-22T03:05:02;2.00;;;1.20;;
73120;SDS011;61307;49.628;-1.624;2023-07-22T03:07:33;2.45;;;1.17;;
73120;SDS011;61307;49.628;-1.624;2023-07-22T03:10:00;2.03;;;1.13;;
73120;SDS011;61307;49.628;-1.624;2023-07-22T03:12:27;2.20;;;1.27;;
73120;SDS011;61307;49.628;-1.624;2023-07-22T03:14:55;1.00;;;0.90;;
73120;SDS011;61307;49.628;-1.624;2023-07-22T03:17:22;1.55;;;1.00;;
73120;SDS011;61307;49.628;-1.624;2023-07-22T03:19:49;1.63;;;1.13;;
73120;SDS011;61307;49.628;-1.624;2023-07-22T03:22:18;2.28;;;1.20;;
73120;SDS011;61307;49.628;-1.624;2023-07-22T03:24:45;2.05;;;1.20;;
73120;SDS011;61307;49.628;-1.624;2023-07-22T03:27:13;3.00;;;1.10;;
73120;SDS011;61307;49.628;-1.624;2023-07-22T03:29:42;2.13;;;0.90;;
73120;SDS011;61307;49.628;-1.624;2023-07-22T03:32:09;1.95;;;1.25;;
73120;SDS011;61307;49.628;-1.624;2023-07-22T03:34:37;1.45;;;1.08;;
73120;SDS011;61307;49.628;-1.624;2023-07-22T03:37:04;1.00;;;1.00;;
73120;SDS011;61307;49.628;-1.624;2023-07-22T03:39:33;1.40;;;1.02;;
73120;SDS011;61307;49.628;-1.624;2023-07-22T03:42:00;1.48;;;1.10;;
73120;SDS011;61307;49.628;-1.624;2023-07-22T03:44:29;2.75;;;0.95;;
73120;SDS011;61307;49.628;-1.624;2023-07-22T03:46:56;2.95;;;1.02;;
73120;SDS011;61307;49.628;-1.624;2023-07-22T03:49:23;1.88;;;0.95;;
73120;SDS011;61307;49.628;-1.624;2023-07-22T03:51:50;0.85;;;0.80;;
73120;SDS011;61307;49.628;-1.624;2023-07-22T03:54:17;2.92;;;1.08;;
73120;SDS011;61307;49.628;-1.624;2023-07-22T03:56:46;1.52;;;1.10;;
73120;SDS011;61307;49.628;-1.624;2023-07-22T03:59:13;2.85;;;0.95;;
73120;SDS011;61307;49.628;-1.624;2023-07-22T04:01:40;2.63;;;1.20;;
73120;SDS011;61307;49.628;-1.624;2023-07-22T04:04:08;1.17;;;0.75;;
73120;SDS011;61307;49.628;-1.624;2023-07-22T04:06:35;1.17;;;0.98;;
73120;SDS011;61307;49.628;-1.624;2023-07-22T04:09:02;1.48;;;1.08;;
73120;SDS011;61307;49.628;-1.624;2023-07-22T04:11:30;3.13;;;1.08;;
73120;SDS011;61307;49.628;-1.624;2023-07-22T04:13:58;1.25;;;1.00;;
73120;SDS011;61307;49.628;-1.624;2023-07-22T04:16:25;1.58;;;1.00;;
73120;SDS011;61307;49.628;-1.624;2023-07-22T04:18:52;1.20;;;0.82;;
73120;SDS011;61307;49.628;-1.624;2023-07-22T04:21:20;2.08;;;1.10;;
73120;SDS011;61307;49.628;-1.624;2023-07-22T04:23:47;0.70;;;0.70;;
73120;SDS011;61307;49.628;-1.624;2023-07-22T04:26:14;2.55;;;1.33;;
73120;SDS011;61307;49.628;-1.624;2023-07-22T04:28:42;1.52;;;1.00;;
73120;SDS011;61307;49.628;-1.624;2023-07-22T04:31:10;1.50;;;1.00;;
73120;SDS011;61307;49.628;-1.624;2023-07-22T04:33:37;1.52;;;1.13;;
73120;SDS011;61307;49.628;-1.624;2023-07-22T04:36:06;1.50;;;1.10;;
73120;SDS011;61307;49.628;-1.624;2023-07-22T04:38:33;3.53;;;0.90;;
73120;SDS011;61307;49.628;-1.624;2023-07-22T04:41:02;1.65;;;1.13;;
73120;SDS011;61307;49.628;-1.624;2023-07-22T04:43:30;1.90;;;1.10;;
73120;SDS011;61307;49.628;-1.624;2023-07-22T04:45:57;1.77;;;0.98;;
73120;SDS011;61307;49.628;-1.624;2023-07-22T04:48:26;2.53;;;1.05;;
73120;SDS011;61307;49.628;-1.624;2023-07-22T04:50:53;2.50;;;1.27;;
73120;SDS011;61307;49.628;-1.624;2023-07-22T04:53:20;2.22;;;1.10;;
73120;SDS011;61307;49.628;-1.624;2023-07-22T04:55:48;2.00;;;1.05;;
73120;SDS011;61307;49.628;-1.624;2023-07-22T04:58:15;1.42;;;0.90;;
73120;SDS011;61307;49.628;-1.624;2023-07-22T05:00:42;2.05;;;0.98;;
73120;SDS011;61307;49.628;-1.624;2023-07-22T05:03:10;3.72;;;1.15;;
73120;SDS011;61307;49.628;-1.624;2023-07-22T05:05:38;1.38;;;0.82;;
73120;SDS011;61307;49.628;-1.624;2023-07-22T05:08:04;1.45;;;1.00;;
73120;SDS011;61307;49.628;-1.624;2023-07-22T05:10:32;1.55;;;1.00;;
73120;SDS011;61307;49.628;-1.624;2023-07-22T05:12:59;0.95;;;0.88;;
73120;SDS011;61307;49.628;-1.624;2023-07-22T05:15:26;1.65;;;1.00;;
73120;SDS011;61307;49.628;-1.624;2023-07-22T05:17:53;1.27;;;1.05;;
73120;SDS011;61307;49.628;-1.624;2023-07-22T05:20:21;2.35;;;1.00;;
73120;SDS011;61307;49.628;-1.624;2023-07-22T05:22:49;1.65;;;1.10;;
73120;SDS011;61307;49.628;-1.624;2023-07-22T05:25:17;2.75;;;1.30;;
73120;SDS011;61307;49.628;-1.624;2023-07-22T05:27:44;1.88;;;1.10;;
73120;SDS011;61307;49.628;-1.624;2023-07-22T05:30:11;1.70;;;1.05;;
73120;SDS011;61307;49.628;-1.624;2023-07-22T05:32:38;1.00;;;0.90;;
73120;SDS011;61307;49.628;-1.624;2023-07-22T05:35:05;2.17;;;1.08;;
73120;SDS011;61307;49.628;-1.624;2023-07-22T05:37:34;1.90;;;1.42;;
73120;SDS011;61307;49.628;-1.624;2023-07-22T05:40:03;2.45;;;1.30;;
73120;SDS011;61307;49.628;-1.624;2023-07-22T05:42:30;1.67;;;1.23;;
73120;SDS011;61307;49.628;-1.624;2023-07-22T05:44:57;2.00;;;1.15;;
73120;SDS011;61307;49.628;-1.624;2023-07-22T05:47:26;1.50;;;1.00;;
73120;SDS011;61307;49.628;-1.624;2023-07-22T05:49:53;1.30;;;1.02;;
73120;SDS011;61307;49.628;-1.624;2023-07-22T05:52:20;2.13;;;1.20;;
73120;SDS011;61307;49.628;-1.624;2023-07-22T05:54:47;1.15;;;1.05;;
73120;SDS011;61307;49.628;-1.624;2023-07-22T05:57:16;2.58;;;1.02;;
73120;SDS011;61307;49.628;-1.624;2023-07-22T05:59:43;1.52;;;1.02;;
73120;SDS011;61307;49.628;-1.624;2023-07-22T06:02:13;1.15;;;1.05;;
73120;SDS011;61307;49.628;-1.624;2023-07-22T06:04:44;1.55;;;1.08;;
73120;SDS011;61307;49.628;-1.624;2023-07-22T06:07:11;1.80;;;1.00;;
73120;SDS011;61307;49.628;-1.624;2023-07-22T06:09:38;2.35;;;1.20;;
73120;SDS011;61307;49.628;-1.624;2023-07-22T06:12:05;2.60;;;1.20;;
73120;SDS011;61307;49.628;-1.624;2023-07-22T06:14:34;1.20;;;1.10;;
73120;SDS011;61307;49.628;-1.624;2023-07-22T06:17:01;1.38;;;1.13;;
73120;SDS011;61307;49.628;-1.624;2023-07-22T06:19:29;1.98;;;1.00;;
73120;SDS011;61307;49.628;-1.624;2023-07-22T06:21:56;1.42;;;0.90;;
73120;SDS011;61307;49.628;-1.624;2023-07-22T06:24:38;2.13;;;1.30;;
73120;SDS011;61307;49.628;-1.624;2023-07-22T06:27:05;2.92;;;1.40;;
73120;SDS011;61307;49.628;-1.624;2023-07-22T06:29:32;2.95;;;1.20;;
73120;SDS011;61307;49.628;-1.624;2023-07-22T06:32:01;1.85;;;1.40;;
73120;SDS011;61307;49.628;-1.624;2023-07-22T06:34:28;3.03;;;1.27;;
73120;SDS011;61307;49.628;-1.624;2023-07-22T06:36:55;1.65;;;1.20;;
73120;SDS011;61307;49.628;-1.624;2023-07-22T06:39:22;1.75;;;1.15;;
73120;SDS011;61307;49.628;-1.624;2023-07-22T06:41:49;1.40;;;1.17;;
73120;SDS011;61307;49.628;-1.624;2023-07-22T06:44:17;2.22;;;1.20;;
73120;SDS011;61307;49.628;-1.624;2023-07-22T06:46:45;1.77;;;1.40;;
73120;SDS011;61307;49.628;-1.624;2023-07-22T06:49:12;2.25;;;1.35;;
73120;SDS011;61307;49.628;-1.624;2023-07-22T06:51:39;1.70;;;1.52;;
73120;SDS011;61307;49.628;-1.624;2023-07-22T06:54:06;2.22;;;1.55;;
73120;SDS011;61307;49.628;-1.624;2023-07-22T06:56:34;2.45;;;1.20;;
73120;SDS011;61307;49.628;-1.624;2023-07-22T06:59:01;2.00;;;1.20;;
73120;SDS011;61307;49.628;-1.624;2023-07-22T07:01:28;1.85;;;1.30;;
73120;SDS011;61307;49.628;-1.624;2023-07-22T07:03:56;1.40;;;1.30;;
73120;SDS011;61307;49.628;-1.624;2023-07-22T07:06:23;2.85;;;1.40;;
73120;SDS011;61307;49.628;-1.624;2023-07-22T07:08:50;1.85;;;1.35;;
73120;SDS011;61307;49.628;-1.624;2023-07-22T07:11:18;1.52;;;1.30;;
73120;SDS011;61307;49.628;-1.624;2023-07-22T07:13:45;1.40;;;1.13;;
73120;SDS011;61307;49.628;-1.624;2023-07-22T07:16:21;1.77;;;1.50;;
73120;SDS011;61307;49.628;-1.624;2023-07-22T07:18:49;5.38;;;1.48;;
73120;SDS011;61307;49.628;-1.624;2023-07-22T07:21:18;2.38;;;1.10;;
73120;SDS011;61307;49.628;-1.624;2023-07-22T07:23:45;1.70;;;1.30;;
73120;SDS011;61307;49.628;-1.624;2023-07-22T07:26:13;2.80;;;1.30;;
73120;SDS011;61307;49.628;-1.624;2023-07-22T07:28:41;2.22;;;1.40;;
73120;SDS011;61307;49.628;-1.624;2023-07-22T07:31:08;2.38;;;1.40;;
73120;SDS011;61307;49.628;-1.624;2023-07-22T07:33:35;2.67;;;1.48;;
73120;SDS011;61307;49.628;-1.624;2023-07-22T07:36:02;3.45;;;1.67;;
73120;SDS011;61307;49.628;-1.624;2023-07-22T07:38:31;1.92;;;1.48;;
73120;SDS011;61307;49.628;-1.624;2023-07-22T07:40:59;2.45;;;1.30;;
73120;SDS011;61307;49.628;-1.624;2023-07-22T07:43:28;2.55;;;1.33;;
73120;SDS011;61307;49.628;-1.624;2023-07-22T07:48:42;2.90;;;1.50;;
73120;SDS011;61307;49.628;-1.624;2023-07-22T07:51:11;2.78;;;1.48;;
73120;SDS011;61307;49.628;-1.624;2023-07-22T07:53:41;3.70;;;1.25;;
73120;SDS011;61307;49.628;-1.624;2023-07-22T07:56:09;2.80;;;1.70;;
73120;SDS011;61307;49.628;-1.624;2023-07-22T07:58:37;3.20;;;1.58;;
73120;SDS011;61307;49.628;-1.624;2023-07-22T08:01:04;2.17;;;1.45;;
73120;SDS011;61307;49.628;-1.624;2023-07-22T08:03:32;2.13;;;1.60;;
73120;SDS011;61307;49.628;-1.624;2023-07-22T08:06:01;2.67;;;1.52;;
73120;SDS011;61307;49.628;-1.624;2023-07-22T08:08:28;2.42;;;1.67;;
73120;SDS011;61307;49.628;-1.624;2023-07-22T08:11:01;2.65;;;1.67;;
73120;SDS011;61307;49.628;-1.624;2023-07-22T08:13:29;3.45;;;1.80;;
73120;SDS011;61307;49.628;-1.624;2023-07-22T08:15:58;3.67;;;2.05;;
73120;SDS011;61307;49.628;-1.624;2023-07-22T08:18:26;3.35;;;1.98;;
73120;SDS011;61307;49.628;-1.624;2023-07-22T08:20:54;2.72;;;1.80;;
73120;SDS011;61307;49.628;-1.624;2023-07-22T08:23:21;2.25;;;1.70;;
73120;SDS011;61307;49.628;-1.624;2023-07-22T08:25:49;2.50;;;1.80;;
73120;SDS011;61307;49.628;-1.624;2023-07-22T08:28:18;2.08;;;1.85;;
73120;SDS011;61307;49.628;-1.624;2023-07-22T08:30:45;3.45;;;2.10;;
73120;SDS011;61307;49.628;-1.624;2023-07-22T08:33:15;3.45;;;2.22;;
73120;SDS011;61307;49.628;-1.624;2023-07-22T08:35:42;2.53;;;2.00;;
73120;SDS011;61307;49.628;-1.624;2023-07-22T08:38:10;4.72;;;2.30;;
73120;SDS011;61307;49.628;-1.624;2023-07-22T08:43:24;2.83;;;2.10;;
73120;SDS011;61307;49.628;-1.624;2023-07-22T08:45:53;4.22;;;2.40;;
73120;SDS011;61307;49.628;-1.624;2023-07-22T08:48:21;5.03;;;2.13;;
73120;SDS011;61307;49.628;-1.624;2023-07-22T08:50:53;4.32;;;1.95;;
73120;SDS011;61307;49.628;-1.624;2023-07-22T08:53:22;2.63;;;2.00;;
73120;SDS011;61307;49.628;-1.624;2023-07-22T08:55:50;4.30;;;2.47;;
73120;SDS011;61307;49.628;-1.624;2023-07-22T08:58:18;2.80;;;2.03;;
73120;SDS011;61307;49.628;-1.624;2023-07-22T09:01:05;5.65;;;2.13;;
73120;SDS011;61307;49.628;-1.624;2023-07-22T09:03:33;4.35;;;2.17;;
73120;SDS011;61307;49.628;-1.624;2023-07-22T09:06:00;3.28;;;2.20;;
73120;SDS011;61307;49.628;-1.624;2023-07-22T09:08:27;3.47;;;2.45;;
73120;SDS011;61307;49.628;-1.624;2023-07-22T09:10:55;2.92;;;2.35;;
73120;SDS011;61307;49.628;-1.624;2023-07-22T09:13:22;4.05;;;2.35;;
73120;SDS011;61307;49.628;-1.624;2023-07-22T09:15:51;3.03;;;2.38;;
73120;SDS011;61307;49.628;-1.624;2023-07-22T09:18:20;3.33;;;2.33;;
73120;SDS011;61307;49.628;-1.624;2023-07-22T09:20:47;4.45;;;2.35;;
73120;SDS011;61307;49.628;-1.624;2023-07-22T09:23:31;5.57;;;2.88;;
73120;SDS011;61307;49.628;-1.624;2023-07-22T09:26:07;3.42;;;2.33;;
73120;SDS011;61307;49.628;-1.624;2023-07-22T09:28:47;5.78;;;2.65;;
73120;SDS011;61307;49.628;-1.624;2023-07-22T09:31:15;7.45;;;2.90;;
73120;SDS011;61307;49.628;-1.624;2023-07-22T09:33:44;3.08;;;2.63;;
73120;SDS011;61307;49.628;-1.624;2023-07-22T09:36:11;4.30;;;2.65;;
73120;SDS011;61307;49.628;-1.624;2023-07-22T09:38:38;4.30;;;2.65;;
73120;SDS011;61307;49.628;-1.624;2023-07-22T09:41:05;3.90;;;2.95;;
73120;SDS011;61307;49.628;-1.624;2023-07-22T09:43:35;4.50;;;3.20;;
73120;SDS011;61307;49.628;-1.624;2023-07-22T09:46:08;7.47;;;3.33;;
73120;SDS011;61307;49.628;-1.624;2023-07-22T09:48:39;4.85;;;3.53;;
73120;SDS011;61307;49.628;-1.624;2023-07-22T09:51:12;6.40;;;3.67;;
73120;SDS011;61307;49.628;-1.624;2023-07-22T09:53:44;5.00;;;3.45;;
73120;SDS011;61307;49.628;-1.624;2023-07-22T09:56:12;6.22;;;3.13;;
73120;SDS011;61307;49.628;-1.624;2023-07-22T09:58:40;5.07;;;3.65;;
73120;SDS011;61307;49.628;-1.624;2023-07-22T10:01:10;4.38;;;3.22;;
73120;SDS011;61307;49.628;-1.624;2023-07-22T10:03:41;4.82;;;3.22;;
73120;SDS011;61307;49.628;-1.624;2023-07-22T10:06:12;7.25;;;4.18;;
73120;SDS011;61307;49.628;-1.624;2023-07-22T10:08:41;5.05;;;3.83;;
73120;SDS011;61307;49.628;-1.624;2023-07-22T10:11:13;7.05;;;4.00;;
73120;SDS011;61307;49.628;-1.624;2023-07-22T10:13:41;6.35;;;3.97;;
73120;SDS011;61307;49.628;-1.624;2023-07-22T10:16:09;7.25;;;4.45;;
73120;SDS011;61307;49.628;-1.624;2023-07-22T10:18:36;5.95;;;3.80;;
73120;SDS011;61307;49.628;-1.624;2023-07-22T10:21:07;6.53;;;3.53;;
73120;SDS011;61307;49.628;-1.624;2023-07-22T10:26:59;5.85;;;4.13;;
73120;SDS011;61307;49.628;-1.624;2023-07-22T10:29:27;5.78;;;3.70;;
73120;SDS011;61307;49.628;-1.624;2023-07-22T10:31:55;6.78;;;3.80;;
73120;SDS011;61307;49.628;-1.624;2023-07-22T10:34:23;7.70;;;4.10;;
73120;SDS011;61307;49.628;-1.624;2023-07-22T10:36:50;6.13;;;3.90;;
73120;SDS011;61307;49.628;-1.624;2023-07-22T10:39:24;7.25;;;3.97;;
73120;SDS011;61307;49.628;-1.624;2023-07-22T10:41:57;5.45;;;4.13;;
73120;SDS011;61307;49.628;-1.624;2023-07-22T10:44:30;5.57;;;3.67;;
73120;SDS011;61307;49.628;-1.624;2023-07-22T10:46:58;5.07;;;3.83;;
73120;SDS011;61307;49.628;-1.624;2023-07-22T10:49:27;5.30;;;3.97;;
73120;SDS011;61307;49.628;-1.624;2023-07-22T10:52:09;5.88;;;4.65;;
73120;SDS011;61307;49.628;-1.624;2023-07-22T10:54:38;7.13;;;4.30;;
73120;SDS011;61307;49.628;-1.624;2023-07-22T10:59:51;7.10;;;3.80;;
73120;SDS011;61307;49.628;-1.624;2023-07-22T11:02:22;6.57;;;4.20;;
73120;SDS011;61307;49.628;-1.624;2023-07-22T11:04:51;5.45;;;3.88;;
73120;SDS011;61307;49.628;-1.624;2023-07-22T11:07:29;6.85;;;4.20;;
73120;SDS011;61307;49.628;-1.624;2023-07-22T11:09:57;4.53;;;3.50;;
73120;SDS011;61307;49.628;-1.624;2023-07-22T11:12:38;4.95;;;3.47;;
73120;SDS011;61307;49.628;-1.624;2023-07-22T11:15:05;6.22;;;3.88;;
73120;SDS011;61307;49.628;-1.624;2023-07-22T11:17:37;6.18;;;4.30;;
73120;SDS011;61307;49.628;-1.624;2023-07-22T11:20:04;5.95;;;4.07;;
73120;SDS011;61307;49.628;-1.624;2023-07-22T11:22:32;8.18;;;3.88;;
73120;SDS011;61307;49.628;-1.624;2023-07-22T11:25:02;5.40;;;3.90;;
73120;SDS011;61307;49.628;-1.624;2023-07-22T11:27:29;5.93;;;3.90;;
73120;SDS011;61307;49.628;-1.624;2023-07-22T11:29:59;6.57;;;3.58;;
73120;SDS011;61307;49.628;-1.624;2023-07-22T11:32:28;4.63;;;3.55;;
73120;SDS011;61307;49.628;-1.624;2023-07-22T11:34:55;6.65;;;3.80;;
73120;SDS011;61307;49.628;-1.624;2023-07-22T11:37:22;5.22;;;3.33;;
73120;SDS011;61307;49.628;-1.624;2023-07-22T11:39:50;5.57;;;3.90;;
73120;SDS011;61307;49.628;-1.624;2023-07-22T11:42:17;7.13;;;3.65;;
73120;SDS011;61307;49.628;-1.624;2023-07-22T11:44:44;5.10;;;3.75;;
73120;SDS011;61307;49.628;-1.624;2023-07-22T11:47:13;7.97;;;3.38;;
73120;SDS011;61307;49.628;-1.624;2023-07-22T11:49:40;5.05;;;3.33;;
73120;SDS011;61307;49.628;-1.624;2023-07-22T11:52:09;5.05;;;3.65;;
73120;SDS011;61307;49.628;-1.624;2023-07-22T11:54:39;5.47;;;3.42;;
73120;SDS011;61307;49.628;-1.624;2023-07-22T11:57:11;6.80;;;3.65;;
73120;SDS011;61307;49.628;-1.624;2023-07-22T11:59:42;4.40;;;3.08;;
73120;SDS011;61307;49.628;-1.624;2023-07-22T12:02:13;4.68;;;3.30;;
73120;SDS011;61307;49.628;-1.624;2023-07-22T12:04:41;5.78;;;3.60;;
73120;SDS011;61307;49.628;-1.624;2023-07-22T12:07:21;4.28;;;3.33;;
73120;SDS011;61307;49.628;-1.624;2023-07-22T12:09:49;6.40;;;3.72;;
73120;SDS011;61307;49.628;-1.624;2023-07-22T12:12:17;5.70;;;3.50;;
73120;SDS011;61307;49.628;-1.624;2023-07-22T12:14:45;5.07;;;3.45;;
73120;SDS011;61307;49.628;-1.624;2023-07-22T12:17:13;4.47;;;3.38;;
73120;SDS011;61307;49.628;-1.624;2023-07-22T12:19:50;5.70;;;3.70;;
73120;SDS011;61307;49.628;-1.624;2023-07-22T12:22:18;6.53;;;3.38;;
73120;SDS011;61307;49.628;-1.624;2023-07-22T12:24:46;5.35;;;3.30;;
73120;SDS011;61307;49.628;-1.624;2023-07-22T12:27:14;4.80;;;3.08;;
73120;SDS011;61307;49.628;-1.624;2023-07-22T12:29:41;3.88;;;3.25;;
73120;SDS011;61307;49.628;-1.624;2023-07-22T12:32:08;4.10;;;3.22;;
73120;SDS011;61307;49.628;-1.624;2023-07-22T12:34:37;3.80;;;2.90;;
73120;SDS011;61307;49.628;-1.624;2023-07-22T12:37:04;6.82;;;3.65;;
73120;SDS011;61307;49.628;-1.624;2023-07-22T12:39:31;5.35;;;3.45;;
73120;SDS011;61307;49.628;-1.624;2023-07-22T12:41:59;6.10;;;3.55;;
73120;SDS011;61307;49.628;-1.624;2023-07-22T12:44:26;4.68;;;3.30;;
73120;SDS011;61307;49.628;-1.624;2023-07-22T12:46:53;5.70;;;3.90;;
73120;SDS011;61307;49.628;-1.624;2023-07-22T12:49:20;5.30;;;3.60;;
73120;SDS011;61307;49.628;-1.624;2023-07-22T12:51:49;6.15;;;3.42;;
73120;SDS011;61307;49.628;-1.624;2023-07-22T12:54:16;5.63;;;3.47;;
73120;SDS011;61307;49.628;-1.624;2023-07-22T12:56:43;5.03;;;3.47;;
73120;SDS011;61307;49.628;-1.624;2023-07-22T12:59:10;4.85;;;3.80;;
73120;SDS011;61307;49.628;-1.624;2023-07-22T13:01:37;5.63;;;3.63;;
73120;SDS011;61307;49.628;-1.624;2023-07-22T13:04:14;5.05;;;3.70;;
73120;SDS011;61307;49.628;-1.624;2023-07-22T13:06:41;4.75;;;3.20;;
73120;SDS011;61307;49.628;-1.624;2023-07-22T13:09:09;5.78;;;3.47;;
73120;SDS011;61307;49.628;-1.624;2023-07-22T13:11:36;4.85;;;3.75;;
73120;SDS011;61307;49.628;-1.624;2023-07-22T13:14:03;4.63;;;3.38;;
73120;SDS011;61307;49.628;-1.624;2023-07-22T13:16:30;5.32;;;3.40;;
73120;SDS011;61307;49.628;-1.624;2023-07-22T13:18:57;4.90;;;3.83;;
73120;SDS011;61307;49.628;-1.624;2023-07-22T13:21:25;5.60;;;3.85;;
73120;SDS011;61307;49.628;-1.624;2023-07-22T13:23:53;5.40;;;3.30;;
73120;SDS011;61307;49.628;-1.624;2023-07-22T13:26:21;5.85;;;3.70;;
73120;SDS011;61307;49.628;-1.624;2023-07-22T13:28:48;5.90;;;3.80;;
73120;SDS011;61307;49.628;-1.624;2023-07-22T13:31:16;5.10;;;3.95;;
73120;SDS011;61307;49.628;-1.624;2023-07-22T13:33:43;5.90;;;4.15;;
73120;SDS011;61307;49.628;-1.624;2023-07-22T13:36:10;4.63;;;3.45;;
73120;SDS011;61307;49.628;-1.624;2023-07-22T13:38:37;5.55;;;3.65;;
73120;SDS011;61307;49.628;-1.624;2023-07-22T13:41:03;4.78;;;3.58;;
73120;SDS011;61307;49.628;-1.624;2023-07-22T13:43:32;5.07;;;3.40;;
73120;SDS011;61307;49.628;-1.624;2023-07-22T13:45:59;5.72;;;3.58;;
73120;SDS011;61307;49.628;-1.624;2023-07-22T13:48:26;6.55;;;3.85;;
73120;SDS011;61307;49.628;-1.624;2023-07-22T13:50:53;5.20;;;3.90;;
73120;SDS011;61307;49.628;-1.624;2023-07-22T13:53:20;5.38;;;3.40;;
73120;SDS011;61307;49.628;-1.624;2023-07-22T13:55:47;4.35;;;3.55;;
73120;SDS011;61307;49.628;-1.624;2023-07-22T13:58:14;6.82;;;3.90;;
73120;SDS011;61307;49.628;-1.624;2023-07-22T14:00:43;4.93;;;3.63;;
73120;SDS011;61307;49.628;-1.624;2023-07-22T14:03:10;6.25;;;4.20;;
73120;SDS011;61307;49.628;-1.624;2023-07-22T14:05:37;6.38;;;4.13;;
73120;SDS011;61307;49.628;-1.624;2023-07-22T14:08:04;5.25;;;3.80;;
73120;SDS011;61307;49.628;-1.624;2023-07-22T14:10:50;6.75;;;3.83;;
73120;SDS011;61307;49.628;-1.624;2023-07-22T14:13:17;7.80;;;4.05;;
73120;SDS011;61307;49.628;-1.624;2023-07-22T14:15:45;5.63;;;3.63;;
73120;SDS011;61307;49.628;-1.624;2023-07-22T14:18:12;5.22;;;3.88;;
73120;SDS011;61307;49.628;-1.624;2023-07-22T14:20:42;5.05;;;3.97;;
73120;SDS011;61307;49.628;-1.624;2023-07-22T14:26:12;7.32;;;4.30;;
73120;SDS011;61307;49.628;-1.624;2023-07-22T14:28:53;5.13;;;3.78;;
73120;SDS011;61307;49.628;-1.624;2023-07-22T14:31:21;6.47;;;4.10;;
73120;SDS011;61307;49.628;-1.624;2023-07-22T14:33:48;5.72;;;3.90;;
73120;SDS011;61307;49.628;-1.624;2023-07-22T14:36:15;6.15;;;4.03;;
73120;SDS011;61307;49.628;-1.624;2023-07-22T14:38:43;6.03;;;4.20;;
73120;SDS011;61307;49.628;-1.624;2023-07-22T14:41:11;5.78;;;4.25;;
73120;SDS011;61307;49.628;-1.624;2023-07-22T14:43:38;5.88;;;4.10;;
73120;SDS011;61307;49.628;-1.624;2023-07-22T14:46:05;5.97;;;4.10;;
73120;SDS011;61307;49.628;-1.624;2023-07-22T14:48:33;5.55;;;4.07;;
73120;SDS011;61307;49.628;-1.624;2023-07-22T14:51:00;5.55;;;3.88;;
73120;SDS011;61307;49.628;-1.624;2023-07-22T14:53:27;5.80;;;4.13;;
73120;SDS011;61307;49.628;-1.624;2023-07-22T14:55:55;6.05;;;4.20;;
73120;SDS011;61307;49.628;-1.624;2023-07-22T14:58:22;6.00;;;4.05;;